Time;durP1;ratioP1;P1;durP2;ratioP2;P2;SDS_P1;SDS_P2;PMS_P1;PMS_P2;Temp;Humidity;BMP_temperature;BMP_pressure;BME280_temperature;BME280_humidity;BME280_pressure;Samples;Min_cycle;Max_cycle;Signal;HPM_P1;HPM_P2
2022/06/17 00:01:23;;;;;;;0.20;0.20;;;18.70;99.90;;;;;;5044258;28;20201;-82
2022/06/17 00:03:49;;;;;;;0.40;0.40;;;18.70;99.90;;;;;;5046940;28;21088;-82
2022/06/17 00:06:15;;;;;;;0.57;0.57;;;18.70;99.90;;;;;;5049756;28;20214;-82
2022/06/17 00:08:43;;;;;;;0.50;0.23;;;18.60;99.90;;;;;;5048996;28;20228;-82
2022/06/17 00:11:25;;;;;;;0.20;0.20;;;18.60;99.90;;;;;;5044134;28;20802;-82
2022/06/17 00:13:50;;;;;;;0.20;0.20;;;18.60;99.90;;;;;;5043475;28;20174;-82
2022/06/17 00:16:19;;;;;;;0.53;0.40;;;18.50;99.90;;;;;;5045008;28;20201;-82
2022/06/17 00:18:44;;;;;;;0.20;0.20;;;18.60;99.90;;;;;;5047905;28;20187;-82
2022/06/17 00:21:45;;;;;;;0.20;0.20;;;18.60;99.90;;;;;;5048227;28;20189;-82
2022/06/17 00:24:27;;;;;;;0.20;0.20;;;18.60;99.90;;;;;;5036589;28;20308;-83
2022/06/17 00:26:54;;;;;;;0.10;0.10;;;18.50;99.90;;;;;;5046939;28;21283;-83
2022/06/17 00:29:23;;;;;;;0.23;0.23;;;18.50;99.90;;;;;;5042514;28;20251;-82
2022/06/17 00:31:49;;;;;;;0.20;0.20;;;18.50;99.90;;;;;;5045765;28;21305;-82
2022/06/17 00:34:14;;;;;;;0.40;0.40;;;18.60;99.90;;;;;;5047304;28;20175;-82
2022/06/17 00:36:41;;;;;;;0.13;0.13;;;18.50;99.90;;;;;;5046901;28;20202;-82
2022/06/17 00:39:17;;;;;;;1.37;0.30;;;18.60;99.90;;;;;;5043744;28;20224;-82
2022/06/17 00:41:47;;;;;;;0.17;0.17;;;18.50;99.90;;;;;;5046992;28;20170;-82
2022/06/17 00:44:40;;;;;;;0.30;0.30;;;18.50;99.90;;;;;;5044394;28;20217;-82
2022/06/17 00:47:35;;;;;;;0.23;0.23;;;18.50;99.90;;;;;;5047620;28;20274;-83
2022/06/17 00:50:17;;;;;;;0.20;0.20;;;18.30;99.90;;;;;;5045264;28;20533;-82
2022/06/17 00:52:52;;;;;;;0.40;0.30;;;18.30;99.90;;;;;;5045935;28;20185;-82
2022/06/17 00:55:32;;;;;;;0.23;0.23;;;18.20;99.90;;;;;;5046552;28;20186;-82
2022/06/17 00:58:00;;;;;;;0.30;0.30;;;18.20;99.90;;;;;;5048155;28;20181;-82
2022/06/17 01:00:27;;;;;;;0.30;0.30;;;18.20;99.90;;;;;;5047005;28;20265;-82
2022/06/17 01:02:56;;;;;;;0.30;0.30;;;18.20;99.90;;;;;;5045730;28;20185;-82
2022/06/17 01:05:30;;;;;;;0.20;0.20;;;18.20;99.90;;;;;;5044285;28;20517;-82
2022/06/17 01:08:01;;;;;;;1.00;0.47;;;18.10;99.90;;;;;;5040682;28;20646;-81
2022/06/17 01:10:28;;;;;;;0.10;0.10;;;18.00;99.90;;;;;;5040782;28;20187;-81
2022/06/17 01:13:03;;;;;;;0.37;0.30;;;18.00;99.90;;;;;;5046624;28;20193;-83
2022/06/17 01:15:32;;;;;;;0.43;0.43;;;18.10;99.90;;;;;;5046709;28;20213;-82
2022/06/17 01:17:58;;;;;;;0.30;0.30;;;18.10;99.90;;;;;;5047276;28;20673;-82
2022/06/17 01:20:26;;;;;;;0.20;0.20;;;18.10;99.90;;;;;;5046036;28;20189;-82
2022/06/17 01:22:57;;;;;;;0.30;0.30;;;18.10;99.90;;;;;;5043564;28;20235;-82
2022/06/17 01:25:30;;;;;;;0.20;0.20;;;18.10;99.90;;;;;;5044809;28;20178;-82
2022/06/17 01:27:59;;;;;;;0.30;0.20;;;18.10;99.90;;;;;;5045741;28;20186;-82
2022/06/17 01:30:28;;;;;;;0.10;0.10;;;18.10;99.90;;;;;;5046792;28;20603;-82
2022/06/17 01:33:20;;;;;;;0.13;0.13;;;18.20;99.90;;;;;;5046440;28;20179;-82
2022/06/17 01:36:04;;;;;;;0.10;0.10;;;18.20;99.90;;;;;;5045615;28;20208;-82
2022/06/17 01:38:32;;;;;;;0.10;0.10;;;18.30;99.90;;;;;;5044321;28;20239;-82
2022/06/17 01:41:00;;;;;;;0.30;0.30;;;18.20;99.90;;;;;;5046729;28;20194;-82
2022/06/17 01:43:36;;;;;;;0.30;0.30;;;18.20;99.90;;;;;;5044361;28;20193;-83
2022/06/17 01:46:07;;;;;;;0.20;0.20;;;18.20;99.90;;;;;;5044908;28;20220;-82
2022/06/17 01:48:37;;;;;;;0.20;0.20;;;18.20;99.90;;;;;;5046007;28;20181;-82
2022/06/17 01:51:05;;;;;;;0.20;0.20;;;18.00;99.90;;;;;;5043710;28;20200;-82
2022/06/17 01:53:34;;;;;;;0.40;0.40;;;18.00;99.90;;;;;;5043789;28;20186;-82
2022/06/17 01:56:20;;;;;;;0.37;0.37;;;18.00;99.90;;;;;;5044302;28;20206;-82
2022/06/17 01:58:55;;;;;;;0.20;0.20;;;17.90;99.90;;;;;;5045129;28;20639;-82
2022/06/17 02:01:23;;;;;;;0.47;0.47;;;17.70;99.90;;;;;;5045542;28;20235;-82
2022/06/17 02:03:54;;;;;;;0.50;0.40;;;17.60;99.90;;;;;;5044693;28;20611;-82
2022/06/17 02:06:28;;;;;;;0.10;0.10;;;17.60;99.90;;;;;;5044954;28;20217;-82
2022/06/17 02:08:53;;;;;;;0.20;0.20;;;17.50;99.90;;;;;;5041117;28;20221;-82
2022/06/17 02:11:19;;;;;;;0.20;0.20;;;17.40;99.90;;;;;;5044453;28;20244;-81
2022/06/17 02:13:45;;;;;;;0.40;0.30;;;17.20;99.90;;;;;;5041792;28;20248;-82
2022/06/17 02:16:11;;;;;;;0.40;0.40;;;17.20;99.90;;;;;;5041537;28;20635;-82
2022/06/17 02:18:39;;;;;;;0.30;0.30;;;17.00;99.90;;;;;;5042150;28;20186;-82
2022/06/17 02:21:10;;;;;;;0.60;0.60;;;16.90;99.90;;;;;;5040449;28;20213;-81
2022/06/17 02:23:37;;;;;;;0.60;0.30;;;16.90;99.90;;;;;;5044403;28;20197;-82
2022/06/17 02:26:05;;;;;;;0.37;0.37;;;16.90;99.90;;;;;;5043067;28;20210;-83
2022/06/17 02:28:32;;;;;;;0.17;0.17;;;17.10;99.90;;;;;;5041712;28;20209;-82
2022/06/17 02:30:59;;;;;;;0.30;0.30;;;17.20;99.90;;;;;;5044487;28;20213;-82
2022/06/17 02:33:27;;;;;;;0.30;0.30;;;17.20;99.90;;;;;;5060206;28;20205;-82
2022/06/17 02:35:57;;;;;;;0.20;0.20;;;17.20;99.90;;;;;;5060071;28;20233;-82
2022/06/17 02:38:27;;;;;;;0.20;0.20;;;17.40;99.90;;;;;;5042086;28;20182;-82
2022/06/17 02:40:58;;;;;;;0.50;0.30;;;17.40;99.90;;;;;;5041995;28;20189;-82
2022/06/17 02:43:28;;;;;;;0.40;0.40;;;17.50;99.90;;;;;;5041592;28;20828;-81
2022/06/17 02:45:59;;;;;;;0.20;0.20;;;17.50;99.90;;;;;;5044753;28;20240;-82
2022/06/17 02:48:28;;;;;;;0.10;0.10;;;17.60;99.90;;;;;;5044566;28;20283;-82
2022/06/17 02:50:57;;;;;;;0.30;0.30;;;17.70;99.90;;;;;;5044237;28;20245;-82
2022/06/17 02:53:34;;;;;;;0.40;0.40;;;17.60;99.90;;;;;;5039117;28;20182;-82
2022/06/17 02:56:11;;;;;;;0.20;0.20;;;17.60;99.90;;;;;;5038974;28;20269;-82
2022/06/17 02:59:05;;;;;;;0.10;0.10;;;17.50;99.90;;;;;;5060816;28;20214;-82
2022/06/17 03:01:35;;;;;;;0.40;0.30;;;17.50;99.90;;;;;;5042768;28;20608;-82
2022/06/17 03:04:05;;;;;;;0.30;0.30;;;17.30;99.90;;;;;;5043242;28;20636;-82
2022/06/17 03:06:35;;;;;;;0.27;0.20;;;17.20;99.90;;;;;;5045169;28;20223;-82
2022/06/17 03:09:23;;;;;;;1.20;0.63;;;17.00;99.90;;;;;;5042015;28;20194;-82
2022/06/17 03:11:57;;;;;;;0.33;0.33;;;16.80;99.90;;;;;;5039967;28;20689;-82
2022/06/17 03:14:27;;;;;;;0.47;0.47;;;16.70;99.90;;;;;;5040639;28;20190;-82
2022/06/17 03:16:55;;;;;;;0.30;0.30;;;16.50;99.90;;;;;;5043810;28;20209;-82
2022/06/17 03:19:23;;;;;;;0.60;0.43;;;16.40;99.90;;;;;;5043519;28;20678;-82
2022/06/17 03:21:48;;;;;;;0.40;0.40;;;16.50;99.90;;;;;;5042500;28;20190;-81
2022/06/17 03:24:30;;;;;;;0.17;0.17;;;16.40;99.90;;;;;;5040915;28;20193;-82
2022/06/17 03:27:06;;;;;;;0.20;0.20;;;16.40;99.90;;;;;;5043960;28;20213;-82
2022/06/17 03:29:34;;;;;;;0.40;0.40;;;16.40;99.90;;;;;;5044165;28;20212;-81
2022/06/17 03:32:04;;;;;;;0.30;0.30;;;16.40;99.90;;;;;;5043632;28;20216;-82
2022/06/17 03:34:47;;;;;;;0.20;0.20;;;16.50;99.90;;;;;;5043140;28;20192;-83
2022/06/17 03:37:29;;;;;;;0.13;0.13;;;16.60;99.90;;;;;;5043252;28;20212;-82
2022/06/17 03:40:06;;;;;;;0.10;0.10;;;17.50;99.90;;;;;;5044734;28;20205;-81
2022/06/17 03:42:57;;;;;;;0.30;0.30;;;18.30;99.90;;;;;;5043193;28;20188;-82
2022/06/17 03:45:34;;;;;;;0.33;0.33;;;18.50;99.90;;;;;;5029039;28;20206;-83
2022/06/17 03:48:27;;;;;;;0.20;0.20;;;18.70;99.90;;;;;;5043217;28;20724;-82
2022/06/17 03:50:53;;;;;;;0.20;0.20;;;19.10;99.90;;;;;;5044608;28;20205;-82
2022/06/17 03:53:29;;;;;;;0.33;0.33;;;19.80;99.90;;;;;;5041794;28;21273;-82
2022/06/17 03:56:06;;;;;;;0.30;0.30;;;20.40;99.90;;;;;;5042388;28;20209;-82
2022/06/17 03:58:32;;;;;;;0.53;0.53;;;20.60;99.90;;;;;;5037496;28;20191;-82
2022/06/17 04:01:27;;;;;;;0.40;0.40;;;20.40;99.90;;;;;;5041979;28;20197;-83
2022/06/17 04:03:56;;;;;;;0.40;0.40;;;20.50;99.90;;;;;;5029687;28;20205;-82
2022/06/17 04:06:37;;;;;;;0.40;0.40;;;20.70;99.90;;;;;;5043874;28;20836;-82
2022/06/17 04:09:13;;;;;;;0.43;0.43;;;21.10;99.90;;;;;;5047380;28;20185;-84
2022/06/17 04:11:42;;;;;;;0.40;0.40;;;21.40;99.90;;;;;;5057768;28;20704;-82
2022/06/17 04:14:20;;;;;;;0.40;0.40;;;21.30;99.90;;;;;;5062119;28;20193;-82
2022/06/17 04:16:52;;;;;;;0.30;0.30;;;20.90;99.90;;;;;;5059204;28;20700;-83
2022/06/17 04:19:21;;;;;;;0.37;0.33;;;20.80;99.90;;;;;;5058155;28;20244;-84
2022/06/17 04:21:48;;;;;;;0.20;0.20;;;20.70;99.90;;;;;;5057270;28;20186;-81
2022/06/17 04:24:21;;;;;;;0.40;0.40;;;21.00;99.90;;;;;;5058834;28;20206;-82
2022/06/17 04:26:50;;;;;;;0.40;0.40;;;20.30;99.90;;;;;;5055935;28;20213;-82
2022/06/17 04:29:20;;;;;;;0.30;0.30;;;20.20;99.90;;;;;;5054359;28;20209;-81
2022/06/17 04:31:56;;;;;;;0.27;0.27;;;20.30;99.90;;;;;;5055447;28;20213;-82
2022/06/17 04:34:21;;;;;;;0.23;0.23;;;20.40;99.90;;;;;;5054866;28;20185;-82
2022/06/17 04:36:54;;;;;;;0.30;0.30;;;20.50;99.90;;;;;;5054493;28;20294;-83
2022/06/17 04:39:25;;;;;;;0.47;0.27;;;20.40;99.90;;;;;;5055393;28;20193;-83
2022/06/17 04:41:53;;;;;;;0.20;0.20;;;20.50;99.90;;;;;;5058295;28;20191;-83
2022/06/17 04:44:19;;;;;;;0.77;0.30;;;20.70;99.90;;;;;;5056176;28;20200;-83
2022/06/17 04:46:51;;;;;;;0.40;0.40;;;20.90;99.90;;;;;;5055747;28;20267;-83
2022/06/17 04:49:24;;;;;;;0.30;0.30;;;20.90;99.90;;;;;;5056408;28;20236;-83
2022/06/17 04:51:52;;;;;;;0.23;0.23;;;20.90;99.90;;;;;;5058219;28;20209;-83
2022/06/17 04:54:18;;;;;;;0.20;0.20;;;20.70;99.90;;;;;;5053945;28;20242;-82
2022/06/17 04:56:48;;;;;;;0.20;0.20;;;20.70;99.90;;;;;;5053281;28;20282;-81
2022/06/17 04:59:30;;;;;;;0.30;0.30;;;20.60;99.90;;;;;;5048758;28;20203;-82
2022/06/17 05:01:57;;;;;;;0.30;0.30;;;20.50;99.90;;;;;;5051960;28;20197;-83
2022/06/17 05:04:23;;;;;;;0.33;0.33;;;20.20;99.90;;;;;;5052251;28;20189;-82
2022/06/17 05:06:49;;;;;;;1.00;0.83;;;20.00;99.90;;;;;;5051568;28;20206;-83
2022/06/17 05:09:27;;;;;;;0.27;0.27;;;19.80;99.90;;;;;;5051054;28;20209;-83
2022/06/17 05:12:01;;;;;;;0.40;0.40;;;19.70;99.90;;;;;;5050942;28;20218;-82
2022/06/17 05:14:58;;;;;;;0.40;0.40;;;19.40;99.90;;;;;;5051401;28;20205;-80
2022/06/17 05:17:24;;;;;;;0.30;0.30;;;19.40;99.90;;;;;;5046636;28;21160;-81
2022/06/17 05:19:50;;;;;;;0.77;0.57;;;19.50;99.90;;;;;;5051698;28;20192;-81
2022/06/17 05:22:33;;;;;;;0.40;0.40;;;19.60;99.90;;;;;;5048123;28;21262;-81
2022/06/17 05:25:02;;;;;;;0.40;0.37;;;19.70;99.90;;;;;;5048009;28;20547;-81
2022/06/17 05:27:28;;;;;;;0.33;0.33;;;19.70;99.90;;;;;;5049082;28;20244;-81
2022/06/17 05:29:53;;;;;;;0.30;0.30;;;19.80;99.90;;;;;;5045496;28;20207;-81
2022/06/17 05:32:20;;;;;;;0.30;0.30;;;19.70;99.90;;;;;;5049581;28;20202;-81
2022/06/17 05:34:47;;;;;;;0.67;0.67;;;19.80;99.90;;;;;;5051971;28;20204;-81
2022/06/17 05:37:13;;;;;;;0.30;0.30;;;19.80;99.90;;;;;;5047103;28;20212;-81
2022/06/17 05:39:39;;;;;;;0.20;0.20;;;19.80;99.90;;;;;;5043552;28;20235;-81
2022/06/17 05:42:05;;;;;;;0.77;0.37;;;19.90;99.90;;;;;;5051170;28;20199;-80
2022/06/17 05:44:31;;;;;;;0.83;0.40;;;19.90;99.90;;;;;;5049221;28;21197;-81
2022/06/17 05:46:57;;;;;;;0.30;0.30;;;20.10;99.90;;;;;;5044002;28;20220;-81
2022/06/17 05:49:23;;;;;;;0.50;0.50;;;20.20;99.90;;;;;;5048167;28;20197;-81
2022/06/17 05:51:48;;;;;;;0.40;0.40;;;20.30;99.90;;;;;;5046203;28;20206;-84
2022/06/17 05:54:14;;;;;;;0.40;0.40;;;20.30;99.90;;;;;;5044308;28;20193;-84
2022/06/17 05:56:39;;;;;;;0.50;0.50;;;20.50;99.90;;;;;;5049095;28;20210;-83
2022/06/17 05:59:05;;;;;;;0.20;0.20;;;20.50;99.90;;;;;;5041984;28;20196;-82
2022/06/17 06:01:31;;;;;;;0.30;0.30;;;20.60;99.90;;;;;;5043148;28;20274;-83
2022/06/17 06:03:56;;;;;;;0.40;0.40;;;20.70;99.90;;;;;;5044221;28;20269;-84
2022/06/17 06:06:22;;;;;;;3.10;0.50;;;20.70;99.90;;;;;;5037730;28;20208;-82
2022/06/17 06:08:47;;;;;;;0.30;0.30;;;20.90;99.90;;;;;;5043272;28;20182;-83
2022/06/17 06:11:13;;;;;;;0.60;0.40;;;21.10;99.90;;;;;;5045730;28;20214;-82
2022/06/17 06:13:38;;;;;;;0.40;0.40;;;21.20;99.90;;;;;;5043621;28;20595;-83
2022/06/17 06:16:04;;;;;;;0.83;0.50;;;21.30;99.90;;;;;;5042742;28;20627;-83
2022/06/17 06:18:33;;;;;;;0.50;0.50;;;21.20;99.90;;;;;;5044008;28;20193;-82
2022/06/17 06:21:04;;;;;;;0.40;0.40;;;21.00;99.90;;;;;;5043782;28;20682;-82
2022/06/17 06:23:38;;;;;;;0.40;0.40;;;21.00;99.90;;;;;;5043861;28;20651;-85
2022/06/17 06:26:05;;;;;;;0.77;0.40;;;21.10;99.90;;;;;;5046580;28;20209;-85
2022/06/17 06:28:31;;;;;;;0.43;0.43;;;21.30;99.90;;;;;;5039647;28;20194;-85
2022/06/17 06:31:03;;;;;;;0.93;0.23;;;21.70;99.90;;;;;;5041131;28;20207;-85
2022/06/17 06:33:28;;;;;;;0.20;0.20;;;22.00;99.90;;;;;;5042655;28;20205;-85
2022/06/17 06:35:54;;;;;;;0.17;0.17;;;22.10;99.90;;;;;;5043894;28;20584;-85
2022/06/17 06:38:19;;;;;;;0.30;0.30;;;22.30;99.90;;;;;;5041268;28;20220;-86
2022/06/17 06:40:45;;;;;;;0.40;0.40;;;22.60;99.90;;;;;;5043519;28;20280;-86
2022/06/17 06:43:20;;;;;;;0.30;0.30;;;22.60;99.90;;;;;;5044569;28;20198;-85
2022/06/17 06:45:48;;;;;;;1.60;0.63;;;22.60;99.90;;;;;;5044370;28;20224;-86
2022/06/17 06:48:16;;;;;;;0.30;0.30;;;21.90;99.90;;;;;;5041231;28;20528;-85
2022/06/17 06:50:42;;;;;;;1.80;1.53;;;22.10;99.90;;;;;;5041993;28;20192;-85
2022/06/17 06:53:08;;;;;;;0.27;0.27;;;22.20;99.90;;;;;;5042236;28;20555;-85
2022/06/17 06:55:34;;;;;;;5.30;0.67;;;21.80;99.90;;;;;;5037463;28;20645;-86
2022/06/17 06:58:05;;;;;;;0.50;0.50;;;21.70;99.90;;;;;;5042111;28;20218;-85
2022/06/17 07:00:37;;;;;;;0.13;0.13;;;21.70;99.90;;;;;;5040996;28;20447;-85
2022/06/17 07:03:04;;;;;;;0.33;0.33;;;22.20;99.90;;;;;;5042196;28;20308;-85
2022/06/17 07:05:31;;;;;;;0.30;0.30;;;22.50;99.90;;;;;;5041835;28;20203;-85
2022/06/17 07:07:57;;;;;;;0.40;0.40;;;22.80;99.90;;;;;;5033635;28;22174;-85
2022/06/17 07:10:27;;;;;;;2.30;0.50;;;22.80;99.90;;;;;;5036687;28;20301;-84
2022/06/17 07:12:54;;;;;;;0.20;0.20;;;22.50;99.90;;;;;;5032995;28;20360;-84
2022/06/17 07:15:20;;;;;;;0.40;0.40;;;22.50;99.90;;;;;;5045080;28;20193;-84
2022/06/17 07:17:56;;;;;;;0.20;0.20;;;22.50;99.90;;;;;;5043196;28;20177;-84
2022/06/17 07:20:23;;;;;;;0.30;0.30;;;22.50;99.90;;;;;;5044426;28;20185;-84
2022/06/17 07:22:49;;;;;;;0.30;0.30;;;22.50;99.90;;;;;;5045767;28;20181;-84
2022/06/17 07:25:15;;;;;;;0.47;0.47;;;22.90;99.90;;;;;;5041508;28;20228;-84
2022/06/17 07:27:40;;;;;;;0.40;0.40;;;23.00;99.90;;;;;;5044953;28;20267;-84
2022/06/17 07:30:07;;;;;;;0.50;0.47;;;23.00;99.90;;;;;;5043122;28;20338;-83
2022/06/17 07:32:32;;;;;;;0.63;0.63;;;23.30;99.90;;;;;;5045098;28;20212;-83
2022/06/17 07:34:58;;;;;;;0.50;0.50;;;23.00;99.90;;;;;;5045651;28;20553;-83
2022/06/17 07:40:08;;;;;;;0.20;0.20;;;24.10;99.90;;;;;;5045982;28;20605;-84
2022/06/17 07:42:39;;;;;;;0.50;0.50;;;23.80;99.90;;;;;;5042150;28;20186;-83
2022/06/17 07:45:09;;;;;;;0.40;0.40;;;23.50;99.90;;;;;;5048320;28;20240;-83
2022/06/17 07:47:36;;;;;;;0.40;0.40;;;23.40;99.90;;;;;;5048789;28;20221;-84
2022/06/17 07:50:04;;;;;;;2.47;0.30;;;24.20;99.90;;;;;;5047538;28;20197;-84
2022/06/17 07:52:30;;;;;;;0.40;0.40;;;24.30;99.90;;;;;;5044446;28;20238;-84
2022/06/17 07:54:55;;;;;;;0.40;0.40;;;24.30;99.90;;;;;;5047753;28;20193;-84
2022/06/17 07:57:21;;;;;;;0.20;0.20;;;23.70;99.90;;;;;;5045361;28;20224;-84
2022/06/17 07:59:46;;;;;;;0.30;0.30;;;24.30;99.90;;;;;;5048012;28;20231;-84
2022/06/17 08:02:12;;;;;;;0.20;0.20;;;24.80;99.90;;;;;;5042315;28;20193;-84
2022/06/17 08:04:38;;;;;;;0.30;0.30;;;25.20;99.90;;;;;;5041058;28;20186;-85
2022/06/17 08:07:04;;;;;;;0.30;0.30;;;25.50;99.90;;;;;;5047896;28;20210;-84
2022/06/17 08:09:30;;;;;;;0.57;0.57;;;25.80;99.90;;;;;;5047562;28;20189;-84
2022/06/17 08:11:56;;;;;;;0.30;0.30;;;25.70;99.90;;;;;;5041450;28;20206;-84
2022/06/17 08:14:21;;;;;;;0.60;0.60;;;24.70;99.90;;;;;;5046931;28;20235;-84
2022/06/17 08:16:47;;;;;;;0.30;0.30;;;23.70;99.90;;;;;;5041871;28;20670;-84
2022/06/17 08:19:13;;;;;;;0.23;0.23;;;23.70;99.90;;;;;;5047793;28;20595;-84
2022/06/17 08:21:39;;;;;;;0.30;0.30;;;23.90;99.90;;;;;;5046449;28;20189;-83
2022/06/17 08:24:05;;;;;;;0.43;0.43;;;23.90;99.90;;;;;;5045807;28;20535;-83
2022/06/17 08:26:30;;;;;;;0.33;0.30;;;23.40;99.90;;;;;;5046601;28;20228;-81
2022/06/17 08:28:56;;;;;;;0.13;0.13;;;23.50;99.90;;;;;;5045594;28;20667;-81
2022/06/17 08:31:21;;;;;;;0.93;0.40;;;23.80;99.90;;;;;;5044159;28;20209;-82
2022/06/17 08:33:47;;;;;;;0.57;0.50;;;24.10;99.90;;;;;;5042062;28;20186;-82
2022/06/17 08:36:21;;;;;;;5.50;1.23;;;24.60;99.90;;;;;;5036600;28;20210;-81
2022/06/17 08:39:02;;;;;;;0.37;0.33;;;24.60;99.90;;;;;;5044248;28;20272;-81
2022/06/17 08:41:34;;;;;;;0.30;0.30;;;25.10;99.90;;;;;;5045983;28;20728;-81
2022/06/17 08:44:14;;;;;;;0.20;0.20;;;24.90;99.90;;;;;;5044874;28;20193;-81
2022/06/17 08:46:55;;;;;;;0.40;0.40;;;25.40;99.90;;;;;;5044975;28;20210;-81
2022/06/17 08:49:39;;;;;;;1.20;0.73;;;25.00;99.90;;;;;;5046799;28;20189;-81
2022/06/17 08:52:04;;;;;;;0.57;0.47;;;24.80;99.90;;;;;;5040640;28;20217;-81
2022/06/17 08:54:44;;;;;;;0.40;0.40;;;25.30;99.90;;;;;;5041659;28;20223;-82
2022/06/17 08:57:16;;;;;;;0.27;0.27;;;25.70;99.90;;;;;;5047035;28;20209;-82
2022/06/17 08:59:53;;;;;;;0.30;0.30;;;25.90;99.90;;;;;;5042846;28;20273;-82
2022/06/17 09:02:41;;;;;;;0.30;0.30;;;26.50;99.90;;;;;;5047552;28;20192;-82
2022/06/17 09:05:23;;;;;;;0.50;0.50;;;26.40;99.90;;;;;;5041587;28;20194;-81
2022/06/17 09:07:56;;;;;;;0.30;0.30;;;25.80;99.90;;;;;;5044079;28;20185;-81
2022/06/17 09:10:57;;;;;;;0.47;0.47;;;26.00;99.90;;;;;;5043918;28;20662;-81
2022/06/17 09:13:41;;;;;;;0.40;0.40;;;25.20;99.90;;;;;;5045074;28;20201;-83
2022/06/17 09:16:35;;;;;;;0.10;0.10;;;24.60;99.90;;;;;;5040666;28;20943;-83
2022/06/17 09:19:03;;;;;;;0.30;0.30;;;25.10;99.90;;;;;;5040319;28;20180;-83
2022/06/17 09:21:39;;;;;;;0.50;0.50;;;24.90;99.90;;;;;;5045903;28;20235;-83
2022/06/17 09:24:07;;;;;;;0.43;0.30;;;25.00;99.90;;;;;;5045510;28;20714;-85
2022/06/17 09:26:48;;;;;;;0.30;0.30;;;25.60;99.90;;;;;;5043506;28;20284;-83
2022/06/17 09:29:34;;;;;;;0.27;0.27;;;25.50;99.90;;;;;;5044579;28;20202;-83
2022/06/17 09:32:17;;;;;;;0.27;0.27;;;25.80;99.90;;;;;;5042177;28;20678;-83
2022/06/17 09:35:08;;;;;;;0.30;0.30;;;26.20;99.90;;;;;;5043650;28;20189;-83
2022/06/17 09:37:37;;;;;;;1.13;0.80;;;26.20;99.90;;;;;;5038915;28;20202;-83
2022/06/17 09:40:10;;;;;;;0.27;0.27;;;26.60;99.90;;;;;;5045020;28;20189;-83
2022/06/17 09:42:49;;;;;;;0.43;0.43;;;26.80;99.90;;;;;;5044852;28;20275;-83
2022/06/17 09:45:26;;;;;;;0.50;0.50;;;26.80;99.90;;;;;;5042942;28;20215;-83
2022/06/17 09:48:00;;;;;;;0.40;0.40;;;26.60;99.90;;;;;;5045330;28;20173;-83
2022/06/17 09:50:39;;;;;;;1.30;0.82;;;26.50;99.90;;;;;;5046359;28;20591;-82
2022/06/17 09:53:15;;;;;;;1.83;0.60;;;26.30;99.90;;;;;;5044264;28;20239;-83
2022/06/17 09:55:53;;;;;;;0.30;0.30;;;27.00;99.90;;;;;;5043940;28;20267;-83
2022/06/17 09:58:36;;;;;;;0.40;0.20;;;27.10;99.90;;;;;;5040326;28;20271;-83
2022/06/17 10:01:02;;;;;;;0.20;0.20;;;27.30;99.90;;;;;;5044370;28;20212;-83
2022/06/17 10:03:34;;;;;;;2.15;0.55;;;27.60;99.90;;;;;;5039183;28;20185;-83
2022/06/17 10:06:15;;;;;;;0.30;0.30;;;27.90;99.90;;;;;;5043700;28;20209;-83
2022/06/17 10:09:18;;;;;;;0.40;0.40;;;27.10;99.90;;;;;;5042659;28;20186;-83
2022/06/17 10:11:55;;;;;;;0.47;0.47;;;26.30;99.90;;;;;;5039267;28;20235;-83
2022/06/17 10:15:09;;;;;;;0.20;0.20;;;26.70;99.90;;;;;;5038999;28;20211;-83
2022/06/17 10:21:03;;;;;;;0.50;0.50;;;27.60;99.90;;;;;;5039653;28;20193;-83
2022/06/17 10:23:56;;;;;;;0.35;0.30;;;27.30;99.90;;;;;;5042648;28;20727;-83
2022/06/17 10:26:32;;;;;;;0.30;0.30;;;27.50;99.90;;;;;;5041554;28;20754;-83
2022/06/17 10:29:20;;;;;;;0.20;0.20;;;27.50;99.90;;;;;;5036201;28;20201;-82
2022/06/17 10:31:47;;;;;;;0.20;0.20;;;26.80;99.90;;;;;;5041692;28;20206;-83
2022/06/17 10:34:44;;;;;;;0.50;0.50;;;26.60;99.90;;;;;;5042113;28;20209;-83
2022/06/17 10:37:11;;;;;;;0.35;0.35;;;27.00;99.90;;;;;;5038258;28;20216;-83
2022/06/17 10:39:37;;;;;;;0.30;0.30;;;27.40;99.90;;;;;;5042387;28;20197;-83
2022/06/17 10:42:05;;;;;;;0.47;0.47;;;27.90;99.90;;;;;;5040478;28;20627;-82
2022/06/17 10:44:31;;;;;;;0.30;0.30;;;27.60;99.90;;;;;;5037204;28;20678;-83
2022/06/17 10:47:24;;;;;;;0.40;0.40;;;27.30;99.90;;;;;;5043153;28;20218;-83
2022/06/17 10:49:56;;;;;;;0.30;0.30;;;27.50;99.90;;;;;;5042493;28;20235;-83
2022/06/17 10:52:37;;;;;;;0.38;0.38;;;27.60;99.90;;;;;;5038485;28;20276;-83
2022/06/17 10:55:03;;;;;;;0.32;0.32;;;27.60;99.90;;;;;;5042718;28;20208;-83
2022/06/17 10:57:32;;;;;;;0.38;0.38;;;27.00;99.90;;;;;;5042734;28;20225;-83
2022/06/17 10:59:57;;;;;;;0.20;0.20;;;27.50;99.90;;;;;;5040759;28;20201;-83
2022/06/17 11:02:30;;;;;;;0.30;0.30;;;28.20;99.90;;;;;;5039686;28;20197;-83
2022/06/17 11:05:06;;;;;;;0.35;0.35;;;28.20;99.90;;;;;;5041567;28;20188;-83
2022/06/17 11:07:49;;;;;;;0.32;0.32;;;28.80;99.90;;;;;;5043655;28;20216;-83
2022/06/17 11:10:14;;;;;;;0.60;0.55;;;29.10;99.90;;;;;;5041254;28;20209;-83
2022/06/17 11:13:01;;;;;;;0.30;0.30;;;28.50;99.90;;;;;;5041740;28;20201;-83
2022/06/17 11:15:28;;;;;;;0.30;0.30;;;29.10;99.90;;;;;;5043681;28;20748;-83
2022/06/17 11:17:58;;;;;;;1.35;0.63;;;29.50;99.90;;;;;;5045909;28;20186;-83
2022/06/17 11:20:30;;;;;;;0.75;0.73;;;29.70;99.90;;;;;;5047850;28;20289;-82
2022/06/17 11:23:02;;;;;;;0.25;0.25;;;29.70;99.90;;;;;;5045692;28;20190;-83
2022/06/17 11:25:30;;;;;;;0.93;0.93;;;29.90;99.90;;;;;;5042312;28;20207;-83
2022/06/17 11:27:59;;;;;;;0.35;0.30;;;29.70;99.90;;;;;;5046733;28;20662;-83
2022/06/17 11:30:34;;;;;;;0.43;0.43;;;29.60;99.90;;;;;;5040995;28;20185;-81
2022/06/17 11:33:01;;;;;;;0.25;0.25;;;29.70;99.90;;;;;;5045712;28;20234;-81
2022/06/17 11:35:32;;;;;;;0.30;0.30;;;29.40;99.90;;;;;;5049042;28;20182;-81
2022/06/17 11:38:00;;;;;;;0.30;0.30;;;28.80;99.90;;;;;;5051828;28;20197;-80
2022/06/17 11:40:29;;;;;;;0.40;0.40;;;28.90;99.90;;;;;;5046970;28;20261;-80
2022/06/17 11:42:58;;;;;;;0.20;0.20;;;28.90;99.90;;;;;;5045944;28;20188;-81
2022/06/17 11:45:29;;;;;;;0.35;0.35;;;29.00;99.90;;;;;;5046894;28;20186;-80
2022/06/17 11:48:02;;;;;;;0.43;0.40;;;29.20;99.90;;;;;;5044801;28;20239;-81
2022/06/17 11:50:37;;;;;;;0.20;0.20;;;29.00;99.90;;;;;;5049069;28;20177;-80
2022/06/17 11:53:07;;;;;;;0.40;0.40;;;29.00;99.90;;;;;;5049022;28;20284;-80
2022/06/17 11:55:43;;;;;;;0.52;0.50;;;29.20;99.90;;;;;;5043739;28;20189;-81
2022/06/17 11:58:10;;;;;;;0.20;0.20;;;29.70;99.90;;;;;;5048185;28;20216;-81
2022/06/17 12:00:45;;;;;;;0.20;0.20;;;30.00;99.90;;;;;;5050283;28;20182;-80
2022/06/17 12:03:12;;;;;;;0.50;0.50;;;30.20;99.90;;;;;;5049457;28;20181;-81
2022/06/17 12:05:39;;;;;;;0.10;0.10;;;29.60;99.90;;;;;;5048791;28;20201;-81
2022/06/17 12:08:38;;;;;;;0.38;0.38;;;29.90;99.90;;;;;;5046836;28;20276;-81
2022/06/17 12:11:10;;;;;;;0.43;0.43;;;30.20;99.90;;;;;;5045319;28;20213;-80
2022/06/17 12:13:49;;;;;;;0.50;0.50;;;30.40;99.90;;;;;;5047673;28;20169;-81
2022/06/17 12:16:40;;;;;;;0.17;0.17;;;30.40;99.90;;;;;;5045833;28;20586;-81
2022/06/17 12:19:12;;;;;;;0.22;0.22;;;30.50;99.90;;;;;;5046325;28;20647;-80
2022/06/17 12:22:17;;;;;;;0.75;0.75;;;30.00;99.90;;;;;;5048717;28;20265;-81
2022/06/17 12:24:47;;;;;;;0.40;0.40;;;30.30;99.90;;;;;;5047116;28;20192;-81
2022/06/17 12:27:33;;;;;;;0.50;0.50;;;30.40;99.90;;;;;;5044595;28;20577;-81
2022/06/17 12:30:28;;;;;;;0.43;0.43;;;29.30;99.90;;;;;;5047818;28;20756;-80
2022/06/17 12:33:10;;;;;;;0.30;0.30;;;29.60;99.90;;;;;;5046412;28;20584;-80
2022/06/17 12:35:43;;;;;;;0.22;0.22;;;29.80;99.90;;;;;;5044441;28;20200;-81
2022/06/17 12:38:36;;;;;;;1.10;0.55;;;30.10;99.90;;;;;;5046008;28;20184;-80
2022/06/17 12:41:22;;;;;;;0.20;0.20;;;30.50;99.90;;;;;;5046678;28;20231;-81
2022/06/17 12:44:04;;;;;;;0.30;0.30;;;30.80;99.90;;;;;;5047144;28;20252;-80
2022/06/17 12:46:45;;;;;;;0.40;0.40;;;30.30;99.90;;;;;;5044558;28;20197;-81
2022/06/17 12:55:34;;;;;;;1.45;1.35;;;30.90;99.90;;;;;;5045426;28;20224;-80
2022/06/17 12:58:41;;;;;;;0.20;0.20;;;30.80;99.90;;;;;;5047091;28;20178;-80
2022/06/17 13:01:20;;;;;;;0.28;0.28;;;30.90;99.90;;;;;;5005311;28;20342;-81
2022/06/17 13:04:06;;;;;;;0.85;0.22;;;29.00;99.90;;;;;;5042354;28;20185;-81
2022/06/17 13:07:03;;;;;;;0.30;0.30;;;29.50;99.90;;;;;;5046784;28;20752;-81
2022/06/17 13:09:47;;;;;;;0.30;0.30;;;30.20;99.90;;;;;;5046548;28;20186;-80
2022/06/17 13:12:23;;;;;;;0.45;0.43;;;30.70;99.70;;;;;;5049840;28;20225;-80
2022/06/17 13:15:04;;;;;;;0.20;0.20;;;30.70;99.70;;;;;;5046282;28;20315;-80
2022/06/17 13:17:38;;;;;;;0.40;0.20;;;30.70;99.40;;;;;;5045024;28;20696;-80
2022/06/17 13:20:21;;;;;;;0.30;0.30;;;30.70;99.80;;;;;;5046747;28;20260;-81
2022/06/17 13:23:07;;;;;;;0.20;0.20;;;30.80;99.80;;;;;;5044915;28;20185;-81
2022/06/17 13:25:43;;;;;;;0.20;0.20;;;31.10;99.90;;;;;;5038787;28;20181;-81
2022/06/17 13:28:18;;;;;;;0.45;0.45;;;31.20;99.70;;;;;;5045761;28;20194;-81
2022/06/17 13:30:55;;;;;;;0.13;0.13;;;30.90;99.90;;;;;;5046274;28;20188;-80